sensor_id;sensor_type;location;lat;lon;timestamp;P1;durP1;ratioP1;P2;durP2;ratioP2
55136;SDS011;41032;47.818;-3.732;2023-04-03T08:12:16;8.93;;;2.55;;
55136;SDS011;41032;47.818;-3.732;2023-04-03T08:14:46;8.45;;;2.45;;
55136;SDS011;41032;47.818;-3.732;2023-04-03T08:17:13;9.20;;;2.33;;
55136;SDS011;41032;47.818;-3.732;2023-04-03T08:19:42;10.00;;;2.50;;
55136;SDS011;41032;47.818;-3.732;2023-04-03T08:22:09;8.10;;;2.60;;
55136;SDS011;41032;47.818;-3.732;2023-04-03T08:24:37;13.55;;;4.35;;
55136;SDS011;41032;47.818;-3.732;2023-04-03T08:27:04;15.50;;;4.45;;
55136;SDS011;41032;47.818;-3.732;2023-04-03T08:29:31;12.18;;;3.20;;
55136;SDS011;41032;47.818;-3.732;2023-04-03T08:31:59;46.25;;;7.47;;
55136;SDS011;41032;47.818;-3.732;2023-04-03T08:34:26;37.22;;;6.38;;
55136;SDS011;41032;47.818;-3.732;2023-04-03T08:36:54;54.10;;;7.30;;
55136;SDS011;41032;47.818;-3.732;2023-04-03T08:39:21;43.47;;;6.22;;
55136;SDS011;41032;47.818;-3.732;2023-04-03T08:41:49;44.65;;;6.07;;
55136;SDS011;41032;47.818;-3.732;2023-04-03T08:50:06;28.38;;;4.82;;
55136;SDS011;41032;47.818;-3.732;2023-04-03T08:52:41;24.90;;;5.95;;
55136;SDS011;41032;47.818;-3.732;2023-04-03T08:55:23;39.20;;;5.78;;
55136;SDS011;41032;47.818;-3.732;2023-04-03T08:58:05;30.60;;;5.25;;
55136;SDS011;41032;47.818;-3.732;2023-04-03T09:00:57;27.95;;;5.60;;
55136;SDS011;41032;47.818;-3.732;2023-04-03T09:03:23;30.83;;;4.93;;
55136;SDS011;41032;47.818;-3.732;2023-04-03T09:05:53;24.05;;;5.47;;
55136;SDS011;41032;47.818;-3.732;2023-04-03T09:08:33;17.88;;;4.28;;
55136;SDS011;41032;47.818;-3.732;2023-04-03T09:11:24;18.02;;;3.97;;
55136;SDS011;41032;47.818;-3.732;2023-04-03T09:16:53;18.05;;;3.72;;
55136;SDS011;41032;47.818;-3.732;2023-04-03T09:19:32;20.70;;;4.10;;
55136;SDS011;41032;47.818;-3.732;2023-04-03T09:22:24;17.70;;;3.00;;
55136;SDS011;41032;47.818;-3.732;2023-04-03T09:25:05;10.02;;;3.38;;
55136;SDS011;41032;47.818;-3.732;2023-04-03T09:27:41;14.30;;;2.83;;
55136;SDS011;41032;47.818;-3.732;2023-04-03T09:30:13;13.05;;;3.00;;
55136;SDS011;41032;47.818;-3.732;2023-04-03T09:32:43;11.60;;;3.22;;
55136;SDS011;41032;47.818;-3.732;2023-04-03T09:35:17;18.77;;;4.90;;
55136;SDS011;41032;47.818;-3.732;2023-04-03T09:37:49;11.65;;;3.63;;
55136;SDS011;41032;47.818;-3.732;2023-04-03T09:43:02;16.92;;;5.15;;
55136;SDS011;41032;47.818;-3.732;2023-04-03T09:45:50;16.77;;;4.28;;
55136;SDS011;41032;47.818;-3.732;2023-04-03T09:48:19;10.38;;;4.20;;
55136;SDS011;41032;47.818;-3.732;2023-04-03T09:53:42;11.70;;;3.78;;
55136;SDS011;41032;47.818;-3.732;2023-04-03T09:58:43;12.77;;;3.88;;
55136;SDS011;41032;47.818;-3.732;2023-04-03T10:04:03;13.88;;;3.70;;
55136;SDS011;41032;47.818;-3.732;2023-04-03T10:06:36;10.90;;;3.58;;
55136;SDS011;41032;47.818;-3.732;2023-04-03T10:09:54;12.32;;;3.05;;
55136;SDS011;41032;47.818;-3.732;2023-04-03T10:11:58;13.13;;;3.30;;
55136;SDS011;41032;47.818;-3.732;2023-04-03T10:14:28;13.18;;;3.08;;
55136;SDS011;41032;47.818;-3.732;2023-04-03T10:22:23;12.38;;;3.42;;
55136;SDS011;41032;47.818;-3.732;2023-04-03T10:28:07;10.95;;;2.92;;
55136;SDS011;41032;47.818;-3.732;2023-04-03T10:30:41;9.57;;;2.72;;
55136;SDS011;41032;47.818;-3.732;2023-04-03T10:36:42;9.25;;;3.15;;
55136;SDS011;41032;47.818;-3.732;2023-04-03T10:41:56;11.07;;;3.03;;
55136;SDS011;41032;47.818;-3.732;2023-04-03T10:50:38;7.70;;;2.58;;
55136;SDS011;41032;47.818;-3.732;2023-04-03T11:01:52;9.23;;;2.45;;
55136;SDS011;41032;47.818;-3.732;2023-04-03T11:04:24;5.82;;;2.22;;
55136;SDS011;41032;47.818;-3.732;2023-04-03T11:06:59;10.45;;;3.55;;
55136;SDS011;41032;47.818;-3.732;2023-04-03T11:09:33;9.55;;;3.63;;
55136;SDS011;41032;47.818;-3.732;2023-04-03T11:12:05;8.63;;;3.53;;
55136;SDS011;41032;47.818;-3.732;2023-04-03T11:14:39;8.85;;;3.17;;
55136;SDS011;41032;47.818;-3.732;2023-04-03T11:17:49;6.63;;;2.80;;
55136;SDS011;41032;47.818;-3.732;2023-04-03T11:20:01;10.32;;;3.70;;
55136;SDS011;41032;47.818;-3.732;2023-04-03T11:22:34;9.05;;;2.40;;
55136;SDS011;41032;47.818;-3.732;2023-04-03T11:25:13;7.72;;;2.35;;
55136;SDS011;41032;47.818;-3.732;2023-04-03T11:27:54;10.07;;;3.05;;
55136;SDS011;41032;47.818;-3.732;2023-04-03T11:30:25;8.15;;;3.13;;
55136;SDS011;41032;47.818;-3.732;2023-04-03T11:33:02;9.48;;;2.78;;
55136;SDS011;41032;47.818;-3.732;2023-04-03T11:35:33;11.00;;;3.17;;
55136;SDS011;41032;47.818;-3.732;2023-04-03T11:38:01;5.00;;;2.45;;
55136;SDS011;41032;47.818;-3.732;2023-04-03T11:40:32;7.78;;;2.58;;
55136;SDS011;41032;47.818;-3.732;2023-04-03T11:43:04;8.25;;;2.50;;
55136;SDS011;41032;47.818;-3.732;2023-04-03T11:45:35;6.68;;;2.95;;
55136;SDS011;41032;47.818;-3.732;2023-04-03T11:48:09;7.57;;;2.28;;
55136;SDS011;41032;47.818;-3.732;2023-04-03T11:50:58;6.50;;;2.20;;
55136;SDS011;41032;47.818;-3.732;2023-04-03T11:53:46;5.50;;;2.00;;
55136;SDS011;41032;47.818;-3.732;2023-04-03T12:04:30;8.98;;;2.80;;
55136;SDS011;41032;47.818;-3.732;2023-04-03T12:07:18;7.63;;;2.80;;
55136;SDS011;41032;47.818;-3.732;2023-04-03T12:12:35;7.90;;;2.65;;
55136;SDS011;41032;47.818;-3.732;2023-04-03T12:15:12;7.70;;;2.63;;
55136;SDS011;41032;47.818;-3.732;2023-04-03T12:17:47;7.10;;;2.50;;
55136;SDS011;41032;47.818;-3.732;2023-04-03T12:21:00;10.75;;;2.25;;
55136;SDS011;41032;47.818;-3.732;2023-04-03T12:23:30;8.27;;;2.42;;
55136;SDS011;41032;47.818;-3.732;2023-04-03T12:26:01;7.93;;;2.38;;
55136;SDS011;41032;47.818;-3.732;2023-04-03T12:28:51;9.07;;;2.53;;
55136;SDS011;41032;47.818;-3.732;2023-04-03T12:31:22;6.10;;;2.53;;
55136;SDS011;41032;47.818;-3.732;2023-04-03T12:39:21;8.88;;;2.75;;
55136;SDS011;41032;47.818;-3.732;2023-04-03T12:47:37;9.10;;;3.15;;
55136;SDS011;41032;47.818;-3.732;2023-04-03T12:50:27;7.28;;;2.40;;
55136;SDS011;41032;47.818;-3.732;2023-04-03T12:53:00;8.77;;;2.40;;
55136;SDS011;41032;47.818;-3.732;2023-04-03T12:55:31;6.15;;;2.42;;
55136;SDS011;41032;47.818;-3.732;2023-04-03T12:58:22;8.10;;;2.83;;
55136;SDS011;41032;47.818;-3.732;2023-04-03T13:01:12;8.40;;;2.60;;
55136;SDS011;41032;47.818;-3.732;2023-04-03T13:03:43;7.38;;;2.88;;
55136;SDS011;41032;47.818;-3.732;2023-04-03T13:11:17;7.72;;;2.72;;
55136;SDS011;41032;47.818;-3.732;2023-04-03T13:13:56;11.10;;;3.60;;
55136;SDS011;41032;47.818;-3.732;2023-04-03T13:16:26;8.65;;;3.20;;
55136;SDS011;41032;47.818;-3.732;2023-04-03T13:18:54;7.07;;;2.55;;
55136;SDS011;41032;47.818;-3.732;2023-04-03T13:21:23;7.68;;;3.47;;
55136;SDS011;41032;47.818;-3.732;2023-04-03T13:23:55;8.25;;;3.05;;
55136;SDS011;41032;47.818;-3.732;2023-04-03T13:26:25;8.10;;;3.00;;
55136;SDS011;41032;47.818;-3.732;2023-04-03T13:28:57;9.20;;;2.88;;
55136;SDS011;41032;47.818;-3.732;2023-04-03T13:31:30;10.57;;;2.72;;
55136;SDS011;41032;47.818;-3.732;2023-04-03T13:34:19;10.32;;;3.08;;
55136;SDS011;41032;47.818;-3.732;2023-04-03T13:36:59;8.48;;;3.42;;
55136;SDS011;41032;47.818;-3.732;2023-04-03T13:39:29;8.65;;;2.80;;
55136;SDS011;41032;47.818;-3.732;2023-04-03T13:42:01;8.57;;;2.75;;
55136;SDS011;41032;47.818;-3.732;2023-04-03T13:44:42;7.75;;;2.58;;
55136;SDS011;41032;47.818;-3.732;2023-04-03T13:49:46;7.20;;;2.95;;
55136;SDS011;41032;47.818;-3.732;2023-04-03T13:52:47;8.25;;;2.42;;
55136;SDS011;41032;47.818;-3.732;2023-04-03T13:57:48;6.38;;;2.58;;
55136;SDS011;41032;47.818;-3.732;2023-04-03T14:03:21;7.47;;;3.05;;
55136;SDS011;41032;47.818;-3.732;2023-04-03T14:05:50;10.20;;;3.63;;
55136;SDS011;41032;47.818;-3.732;2023-04-03T14:08:19;8.82;;;3.40;;
55136;SDS011;41032;47.818;-3.732;2023-04-03T14:10:48;7.32;;;3.67;;
55136;SDS011;41032;47.818;-3.732;2023-04-03T14:13:18;11.68;;;3.28;;
55136;SDS011;41032;47.818;-3.732;2023-04-03T14:15:47;10.85;;;3.08;;
55136;SDS011;41032;47.818;-3.732;2023-04-03T14:18:18;9.13;;;3.00;;
55136;SDS011;41032;47.818;-3.732;2023-04-03T14:20:47;4.05;;;2.33;;
55136;SDS011;41032;47.818;-3.732;2023-04-03T14:23:17;8.07;;;2.80;;
55136;SDS011;41032;47.818;-3.732;2023-04-03T14:25:45;6.18;;;2.35;;
55136;SDS011;41032;47.818;-3.732;2023-04-03T14:28:16;6.10;;;2.63;;
55136;SDS011;41032;47.818;-3.732;2023-04-03T14:30:47;5.05;;;2.33;;
55136;SDS011;41032;47.818;-3.732;2023-04-03T14:33:17;7.25;;;2.53;;
55136;SDS011;41032;47.818;-3.732;2023-04-03T14:35:47;6.35;;;2.22;;
55136;SDS011;41032;47.818;-3.732;2023-04-03T14:38:24;5.72;;;2.20;;
55136;SDS011;41032;47.818;-3.732;2023-04-03T14:40:53;5.43;;;2.30;;
55136;SDS011;41032;47.818;-3.732;2023-04-03T14:43:20;5.88;;;2.20;;
55136;SDS011;41032;47.818;-3.732;2023-04-03T14:45:48;5.05;;;2.30;;
55136;SDS011;41032;47.818;-3.732;2023-04-03T14:48:17;7.40;;;2.58;;
55136;SDS011;41032;47.818;-3.732;2023-04-03T14:50:47;4.65;;;2.15;;
55136;SDS011;41032;47.818;-3.732;2023-04-03T14:53:15;6.95;;;2.53;;
55136;SDS011;41032;47.818;-3.732;2023-04-03T14:55:48;5.75;;;2.58;;
55136;SDS011;41032;47.818;-3.732;2023-04-03T14:58:17;4.32;;;2.20;;
55136;SDS011;41032;47.818;-3.732;2023-04-03T15:00:46;7.78;;;2.40;;
55136;SDS011;41032;47.818;-3.732;2023-04-03T15:03:14;6.55;;;2.67;;
55136;SDS011;41032;47.818;-3.732;2023-04-03T15:05:44;8.52;;;2.97;;
55136;SDS011;41032;47.818;-3.732;2023-04-03T15:08:22;6.78;;;3.00;;
55136;SDS011;41032;47.818;-3.732;2023-04-03T15:10:52;10.00;;;2.65;;
55136;SDS011;41032;47.818;-3.732;2023-04-03T15:13:21;9.63;;;2.55;;
55136;SDS011;41032;47.818;-3.732;2023-04-03T15:15:50;6.05;;;2.25;;
55136;SDS011;41032;47.818;-3.732;2023-04-03T15:18:20;3.63;;;1.73;;
55136;SDS011;41032;47.818;-3.732;2023-04-03T15:20:52;4.22;;;2.05;;
55136;SDS011;41032;47.818;-3.732;2023-04-03T15:23:21;7.18;;;1.88;;
55136;SDS011;41032;47.818;-3.732;2023-04-03T15:25:51;3.30;;;1.80;;
55136;SDS011;41032;47.818;-3.732;2023-04-03T15:28:23;4.57;;;1.75;;
55136;SDS011;41032;47.818;-3.732;2023-04-03T15:31:02;5.57;;;2.47;;
55136;SDS011;41032;47.818;-3.732;2023-04-03T15:33:31;3.38;;;2.13;;
55136;SDS011;41032;47.818;-3.732;2023-04-03T15:36:01;5.65;;;2.40;;
55136;SDS011;41032;47.818;-3.732;2023-04-03T15:38:30;5.93;;;2.17;;
55136;SDS011;41032;47.818;-3.732;2023-04-03T15:40:57;6.50;;;2.20;;
55136;SDS011;41032;47.818;-3.732;2023-04-03T15:43:26;5.75;;;2.10;;
55136;SDS011;41032;47.818;-3.732;2023-04-03T15:45:56;5.20;;;2.30;;
55136;SDS011;41032;47.818;-3.732;2023-04-03T15:48:26;4.20;;;2.22;;
55136;SDS011;41032;47.818;-3.732;2023-04-03T15:50:56;4.20;;;2.03;;
55136;SDS011;41032;47.818;-3.732;2023-04-03T15:53:25;4.05;;;2.17;;
55136;SDS011;41032;47.818;-3.732;2023-04-03T15:55:54;3.35;;;1.92;;
55136;SDS011;41032;47.818;-3.732;2023-04-03T15:58:22;3.75;;;1.80;;
55136;SDS011;41032;47.818;-3.732;2023-04-03T16:00:51;5.78;;;1.80;;
55136;SDS011;41032;47.818;-3.732;2023-04-03T16:03:20;5.18;;;1.83;;
55136;SDS011;41032;47.818;-3.732;2023-04-03T16:05:50;2.90;;;1.75;;
55136;SDS011;41032;47.818;-3.732;2023-04-03T16:08:19;5.20;;;2.80;;
55136;SDS011;41032;47.818;-3.732;2023-04-03T16:10:47;6.07;;;3.03;;
55136;SDS011;41032;47.818;-3.732;2023-04-03T16:13:16;5.97;;;3.20;;
55136;SDS011;41032;47.818;-3.732;2023-04-03T16:15:45;4.68;;;2.50;;
55136;SDS011;41032;47.818;-3.732;2023-04-03T16:18:14;5.85;;;3.00;;
55136;SDS011;41032;47.818;-3.732;2023-04-03T16:20:44;5.13;;;3.00;;
55136;SDS011;41032;47.818;-3.732;2023-04-03T16:23:12;4.85;;;2.47;;
55136;SDS011;41032;47.818;-3.732;2023-04-03T16:25:42;5.53;;;2.50;;
55136;SDS011;41032;47.818;-3.732;2023-04-03T16:28:12;5.88;;;2.90;;
55136;SDS011;41032;47.818;-3.732;2023-04-03T16:30:42;4.97;;;2.63;;
55136;SDS011;41032;47.818;-3.732;2023-04-03T16:33:11;5.60;;;2.40;;
55136;SDS011;41032;47.818;-3.732;2023-04-03T16:35:40;5.57;;;2.60;;
55136;SDS011;41032;47.818;-3.732;2023-04-03T16:38:09;3.83;;;2.13;;
55136;SDS011;41032;47.818;-3.732;2023-04-03T16:40:38;6.30;;;2.40;;
55136;SDS011;41032;47.818;-3.732;2023-04-03T16:43:06;2.42;;;1.92;;
55136;SDS011;41032;47.818;-3.732;2023-04-03T16:45:35;4.95;;;2.30;;
55136;SDS011;41032;47.818;-3.732;2023-04-03T16:48:04;6.88;;;2.13;;
55136;SDS011;41032;47.818;-3.732;2023-04-03T16:50:33;5.05;;;2.08;;
55136;SDS011;41032;47.818;-3.732;2023-04-03T16:53:02;3.97;;;2.08;;
55136;SDS011;41032;47.818;-3.732;2023-04-03T16:55:30;3.63;;;1.95;;
55136;SDS011;41032;47.818;-3.732;2023-04-03T16:57:58;3.20;;;1.83;;
55136;SDS011;41032;47.818;-3.732;2023-04-03T17:00:29;2.65;;;1.63;;
55136;SDS011;41032;47.818;-3.732;2023-04-03T17:02:59;3.17;;;1.60;;
55136;SDS011;41032;47.818;-3.732;2023-04-03T17:05:28;4.25;;;2.63;;
55136;SDS011;41032;47.818;-3.732;2023-04-03T17:07:57;5.15;;;2.50;;
55136;SDS011;41032;47.818;-3.732;2023-04-03T17:10:26;5.35;;;2.42;;
55136;SDS011;41032;47.818;-3.732;2023-04-03T17:12:56;5.50;;;2.28;;
55136;SDS011;41032;47.818;-3.732;2023-04-03T17:15:25;4.85;;;2.35;;
55136;SDS011;41032;47.818;-3.732;2023-04-03T17:17:54;5.45;;;2.60;;
55136;SDS011;41032;47.818;-3.732;2023-04-03T17:20:23;5.72;;;2.50;;
55136;SDS011;41032;47.818;-3.732;2023-04-03T17:22:52;9.38;;;2.20;;
55136;SDS011;41032;47.818;-3.732;2023-04-03T17:25:20;4.43;;;2.50;;
55136;SDS011;41032;47.818;-3.732;2023-04-03T17:27:49;5.72;;;2.05;;
55136;SDS011;41032;47.818;-3.732;2023-04-03T17:30:17;3.53;;;2.08;;
55136;SDS011;41032;47.818;-3.732;2023-04-03T17:32:45;3.42;;;1.98;;
55136;SDS011;41032;47.818;-3.732;2023-04-03T17:35:12;3.65;;;2.10;;
55136;SDS011;41032;47.818;-3.732;2023-04-03T17:37:40;4.22;;;2.22;;
55136;SDS011;41032;47.818;-3.732;2023-04-03T17:40:08;4.85;;;2.35;;
55136;SDS011;41032;47.818;-3.732;2023-04-03T17:42:39;6.53;;;2.67;;
55136;SDS011;41032;47.818;-3.732;2023-04-03T17:45:07;6.65;;;2.95;;
55136;SDS011;41032;47.818;-3.732;2023-04-03T17:47:35;6.65;;;3.25;;
55136;SDS011;41032;47.818;-3.732;2023-04-03T17:50:04;5.43;;;3.20;;
55136;SDS011;41032;47.818;-3.732;2023-04-03T17:52:32;6.50;;;3.10;;
55136;SDS011;41032;47.818;-3.732;2023-04-03T17:55:01;6.97;;;3.33;;
55136;SDS011;41032;47.818;-3.732;2023-04-03T17:57:28;7.60;;;3.40;;
55136;SDS011;41032;47.818;-3.732;2023-04-03T17:59:57;5.85;;;3.65;;
55136;SDS011;41032;47.818;-3.732;2023-04-03T18:02:25;7.90;;;4.18;;
55136;SDS011;41032;47.818;-3.732;2023-04-03T18:04:54;10.35;;;3.58;;
55136;SDS011;41032;47.818;-3.732;2023-04-03T18:07:23;8.18;;;4.47;;
55136;SDS011;41032;47.818;-3.732;2023-04-03T18:09:51;7.63;;;4.32;;
55136;SDS011;41032;47.818;-3.732;2023-04-03T18:12:20;7.70;;;4.00;;
55136;SDS011;41032;47.818;-3.732;2023-04-03T18:14:48;7.57;;;3.30;;
55136;SDS011;41032;47.818;-3.732;2023-04-03T18:17:16;11.07;;;3.22;;
55136;SDS011;41032;47.818;-3.732;2023-04-03T18:19:45;5.80;;;3.35;;
55136;SDS011;41032;47.818;-3.732;2023-04-03T18:22:14;7.60;;;3.25;;
55136;SDS011;41032;47.818;-3.732;2023-04-03T18:24:46;6.60;;;3.70;;
55136;SDS011;41032;47.818;-3.732;2023-04-03T18:27:16;7.18;;;3.40;;
55136;SDS011;41032;47.818;-3.732;2023-04-03T18:29:47;7.05;;;3.38;;
55136;SDS011;41032;47.818;-3.732;2023-04-03T18:32:18;4.65;;;3.38;;
55136;SDS011;41032;47.818;-3.732;2023-04-03T18:34:46;8.63;;;3.65;;
55136;SDS011;41032;47.818;-3.732;2023-04-03T18:37:15;5.72;;;3.00;;
55136;SDS011;41032;47.818;-3.732;2023-04-03T18:39:43;5.88;;;3.63;;
55136;SDS011;41032;47.818;-3.732;2023-04-03T18:42:12;6.28;;;3.17;;
55136;SDS011;41032;47.818;-3.732;2023-04-03T18:44:43;5.60;;;3.25;;
55136;SDS011;41032;47.818;-3.732;2023-04-03T18:47:14;5.50;;;3.47;;
55136;SDS011;41032;47.818;-3.732;2023-04-03T18:49:42;7.35;;;3.83;;
55136;SDS011;41032;47.818;-3.732;2023-04-03T18:52:11;6.45;;;3.35;;
55136;SDS011;41032;47.818;-3.732;2023-04-03T18:54:39;6.80;;;4.03;;
55136;SDS011;41032;47.818;-3.732;2023-04-03T18:57:07;6.18;;;4.22;;
55136;SDS011;41032;47.818;-3.732;2023-04-03T18:59:35;6.00;;;4.05;;
55136;SDS011;41032;47.818;-3.732;2023-04-03T19:02:04;9.75;;;4.63;;
55136;SDS011;41032;47.818;-3.732;2023-04-03T19:04:33;5.95;;;3.80;;
55136;SDS011;41032;47.818;-3.732;2023-04-03T19:07:02;6.80;;;4.53;;
55136;SDS011;41032;47.818;-3.732;2023-04-03T19:09:31;6.25;;;4.43;;
55136;SDS011;41032;47.818;-3.732;2023-04-03T19:11:59;5.88;;;4.00;;
55136;SDS011;41032;47.818;-3.732;2023-04-03T19:14:28;9.00;;;3.92;;
55136;SDS011;41032;47.818;-3.732;2023-04-03T19:16:56;7.80;;;4.32;;
55136;SDS011;41032;47.818;-3.732;2023-04-03T19:19:25;7.40;;;3.72;;
55136;SDS011;41032;47.818;-3.732;2023-04-03T19:21:53;7.15;;;3.95;;
55136;SDS011;41032;47.818;-3.732;2023-04-03T19:24:21;7.38;;;3.83;;
55136;SDS011;41032;47.818;-3.732;2023-04-03T19:26:50;5.95;;;3.42;;
55136;SDS011;41032;47.818;-3.732;2023-04-03T19:29:18;5.95;;;3.75;;
55136;SDS011;41032;47.818;-3.732;2023-04-03T19:31:47;6.22;;;3.78;;
55136;SDS011;41032;47.818;-3.732;2023-04-03T19:34:15;6.70;;;3.53;;
55136;SDS011;41032;47.818;-3.732;2023-04-03T19:36:44;5.32;;;3.35;;
55136;SDS011;41032;47.818;-3.732;2023-04-03T19:39:14;5.80;;;3.05;;
55136;SDS011;41032;47.818;-3.732;2023-04-03T19:41:42;4.85;;;2.97;;
55136;SDS011;41032;47.818;-3.732;2023-04-03T19:44:11;5.45;;;3.08;;
55136;SDS011;41032;47.818;-3.732;2023-04-03T19:46:40;5.03;;;2.92;;
55136;SDS011;41032;47.818;-3.732;2023-04-03T19:49:09;5.38;;;2.90;;
55136;SDS011;41032;47.818;-3.732;2023-04-03T19:51:37;4.20;;;2.88;;
55136;SDS011;41032;47.818;-3.732;2023-04-03T19:54:06;5.57;;;3.55;;
55136;SDS011;41032;47.818;-3.732;2023-04-03T19:56:35;6.40;;;3.97;;
55136;SDS011;41032;47.818;-3.732;2023-04-03T19:59:03;7.78;;;3.40;;
55136;SDS011;41032;47.818;-3.732;2023-04-03T20:01:32;5.22;;;3.35;;
55136;SDS011;41032;47.818;-3.732;2023-04-03T20:04:01;8.55;;;3.47;;
